Terminal Aerodrome Forecast
Issued by NWS

Home | Current Version | Previous Version | Text Only | Print | Product List | Glossary On
Versions: 1 2 3 4 5 6 7 8 9 10 11 12 13 14 15 16 17 18 19
269
FTUS43 KAPX 280246 AAG
TAFAPN
TAF AMD
KAPN 280246Z 2803/2824 15006KT P6SM OVC020
     FM280600 20005KT 5SM -SHRADZ BR OVC020
     FM280800 22005KT 5SM BR OVC015
     FM281200 28005KT P6SM OVC010
     FM281500 30007KT P6SM BKN035
     FM282300 33005KT P6SM FEW140=

USA.gov is the U.S. government's official web portal to all federal, state and local government web resources and services.